Time;durP1;ratioP1;P1;durP2;ratioP2;P2;SDS_P1;SDS_P2;PMS_P1;PMS_P2;Temp;Humidity;BMP_temperature;BMP_pressure;BME280_temperature;BME280_humidity;BME280_pressure;Samples;Min_cycle;Max_cycle;Signal;HPM_P1;HPM_P2
2024/01/02 00:00:56;;;;;;;19.90;12.80;;;;;;;-147.86;100.00;-17609.17;105158;1268;70845;-54
2024/01/02 00:03:24;;;;;;;20.20;12.80;;;;;;;-147.86;100.00;-17609.17;105070;1270;63155;-51
2024/01/02 00:05:52;;;;;;;22.00;12.60;;;;;;;-147.86;100.00;-17609.17;105172;1267;71381;-51
2024/01/02 00:08:20;;;;;;;19.90;12.20;;;;;;;-147.86;100.00;-17609.17;105126;1266;189193;-54
2024/01/02 00:10:47;;;;;;;20.60;12.20;;;;;;;-147.86;100.00;-17609.17;105157;1267;60031;-54
2024/01/02 00:13:15;;;;;;;18.50;12.10;;;;;;;-147.86;100.00;-17609.17;105181;1264;72393;-54
2024/01/02 00:15:43;;;;;;;19.20;13.40;;;;;;;-147.86;100.00;-17609.17;105204;1266;63496;-52
2024/01/02 00:18:10;;;;;;;21.40;13.70;;;;;;;-147.86;100.00;-17609.17;105226;1266;72400;-55
2024/01/02 00:20:38;;;;;;;26.80;13.40;;;;;;;-147.86;100.00;-17609.17;105187;1265;60439;-53
2024/01/02 00:23:07;;;;;;;20.00;12.30;;;;;;;-147.86;100.00;-17609.17;105228;1262;59545;-55
2024/01/02 00:25:36;;;;;;;17.70;12.50;;;;;;;-147.86;100.00;-17609.17;105258;1264;71409;-55
2024/01/02 00:28:03;;;;;;;18.60;13.40;;;;;;;-147.86;100.00;-17609.17;105248;1265;63586;-52
2024/01/02 00:30:34;;;;;;;20.50;14.50;;;;;;;-147.86;100.00;-17609.17;105218;1266;72589;-53
2024/01/02 00:33:05;;;;;;;20.60;13.80;;;;;;;-147.86;100.00;-17609.17;105187;1266;60406;-53
2024/01/02 00:35:33;;;;;;;22.00;13.10;;;;;;;-147.86;100.00;-17609.17;105284;1266;59893;-54
2024/01/02 00:38:02;;;;;;;19.60;12.70;;;;;;;-147.86;100.00;-17609.17;105268;1266;71530;-53
2024/01/02 00:40:30;;;;;;;24.10;14.30;;;;;;;-147.86;100.00;-17609.17;105221;1266;63072;-55
2024/01/02 00:42:58;;;;;;;23.70;15.00;;;;;;;-147.86;100.00;-17609.17;105208;1264;71353;-53
2024/01/02 00:45:26;;;;;;;20.70;13.70;;;;;;;-147.86;100.00;-17609.17;105194;1267;60468;-53
2024/01/02 00:47:54;;;;;;;21.20;13.20;;;;;;;-147.86;100.00;-17609.17;105202;1266;59622;-53
2024/01/02 00:50:22;;;;;;;21.30;14.10;;;;;;;-147.86;100.00;-17609.17;105197;1269;71775;-54
2024/01/02 00:52:50;;;;;;;28.00;14.50;;;;;;;-147.86;100.00;-17609.17;105218;1263;63608;-53
2024/01/02 00:55:18;;;;;;;23.30;14.70;;;;;;;-147.86;100.00;-17609.17;105221;1274;72608;-56
2024/01/02 00:57:45;;;;;;;17.40;12.90;;;;;;;-147.86;100.00;-17609.17;105321;1267;60451;-53
2024/01/02 01:00:15;;;;;;;23.70;14.20;;;;;;;-147.86;100.00;-17609.17;105263;1267;59697;-55
2024/01/02 01:02:42;;;;;;;20.80;13.70;;;;;;;-147.86;100.00;-17609.17;105277;1261;73030;-55
2024/01/02 01:05:10;;;;;;;23.00;14.90;;;;;;;-147.86;100.00;-17609.17;105216;1265;64441;-53
2024/01/02 01:07:38;;;;;;;23.30;15.50;;;;;;;-147.86;100.00;-17609.17;105247;1266;72648;-52
2024/01/02 01:10:07;;;;;;;21.50;14.80;;;;;;;-147.86;100.00;-17609.17;105244;1262;61268;-55
2024/01/02 01:12:36;;;;;;;25.50;13.50;;;;;;;-147.86;100.00;-17609.17;105566;1261;59544;-54
2024/01/02 01:15:05;;;;;;;20.70;13.00;;;;;;;-147.86;100.00;-17609.17;105573;1258;71836;-54
2024/01/02 01:17:32;;;;;;;23.50;13.90;;;;;;;-147.86;100.00;-17609.17;105427;1263;64917;-53
2024/01/02 01:20:01;;;;;;;25.20;14.70;;;;;;;-147.86;100.00;-17609.17;105679;1261;71957;-54
2024/01/02 01:22:29;;;;;;;22.60;14.20;;;;;;;-147.86;100.00;-17609.17;105551;1258;60727;-55
2024/01/02 01:24:58;;;;;;;25.60;15.20;;;;;;;-147.86;100.00;-17609.17;105538;1257;60129;-55
2024/01/02 01:27:26;;;;;;;23.40;14.20;;;;;;;-147.86;100.00;-17609.17;105636;1258;73009;-53
2024/01/02 01:29:55;;;;;;;19.30;14.70;;;;;;;-147.86;100.00;-17609.17;105565;1263;63215;-53
2024/01/02 01:32:22;;;;;;;24.70;15.70;;;;;;;-147.86;100.00;-17609.17;105409;1257;72641;-54
2024/01/02 01:34:51;;;;;;;24.70;15.50;;;;;;;-147.86;100.00;-17609.17;105552;1263;60436;-53
2024/01/02 01:37:20;;;;;;;23.50;15.30;;;;;;;-147.86;100.00;-17609.17;105588;1263;59715;-51
2024/01/02 01:39:47;;;;;;;22.60;15.60;;;;;;;-147.86;100.00;-17609.17;105574;1258;71812;-55
2024/01/02 01:42:15;;;;;;;26.10;14.30;;;;;;;-147.86;100.00;-17609.17;105506;1264;63693;-56
2024/01/02 01:44:43;;;;;;;21.20;15.20;;;;;;;-147.86;100.00;-17609.17;105566;1257;71431;-53
2024/01/02 01:47:11;;;;;;;24.50;16.20;;;;;;;-147.86;100.00;-17609.17;105614;1263;59756;-54
2024/01/02 01:49:39;;;;;;;27.60;16.00;;;;;;;-147.86;100.00;-17609.17;105541;1263;59627;-51
2024/01/02 01:52:06;;;;;;;26.00;15.50;;;;;;;-147.86;100.00;-17609.17;105402;1262;72486;-55
2024/01/02 01:54:34;;;;;;;21.10;15.20;;;;;;;-147.86;100.00;-17609.17;105562;1258;63222;-55
2024/01/02 01:57:03;;;;;;;22.10;15.40;;;;;;;-147.86;100.00;-17609.17;105560;1262;71461;-54
2024/01/02 01:59:32;;;;;;;29.70;16.30;;;;;;;-147.86;100.00;-17609.17;105550;1257;59896;-51
2024/01/02 02:02:00;;;;;;;24.10;16.60;;;;;;;-147.86;100.00;-17609.17;105600;1263;59534;-54
2024/01/02 02:04:28;;;;;;;23.10;16.50;;;;;;;-147.86;100.00;-17609.17;105260;1264;73076;-52
2024/01/02 02:06:55;;;;;;;22.50;16.40;;;;;;;-147.86;100.00;-17609.17;105683;1260;63234;-56
2024/01/02 02:09:23;;;;;;;23.80;16.20;;;;;;;-147.86;100.00;-17609.17;105654;1260;70655;-55
2024/01/02 02:11:51;;;;;;;25.20;16.90;;;;;;;-147.86;100.00;-17609.17;105635;1260;61682;-55
2024/01/02 02:14:19;;;;;;;26.60;15.90;;;;;;;-147.86;100.00;-17609.17;105683;1269;59617;-56
2024/01/02 02:16:48;;;;;;;26.60;16.90;;;;;;;-147.86;100.00;-17609.17;105630;1256;72990;-53
2024/01/02 02:19:17;;;;;;;26.40;16.00;;;;;;;-147.86;100.00;-17609.17;105667;1260;65150;-54
2024/01/02 02:21:46;;;;;;;24.70;16.30;;;;;;;-147.86;100.00;-17609.17;105670;1262;72617;-52
2024/01/02 02:24:14;;;;;;;24.00;16.50;;;;;;;-147.86;100.00;-17609.17;105578;1260;60441;-55
2024/01/02 02:26:41;;;;;;;26.60;17.20;;;;;;;-147.86;100.00;-17609.17;105612;1260;60158;-54
2024/01/02 02:29:09;;;;;;;23.70;16.40;;;;;;;-147.86;100.00;-17609.17;105657;1254;71835;-53
2024/01/02 02:31:37;;;;;;;22.70;15.70;;;;;;;-147.86;100.00;-17609.17;105653;1264;62209;-56
2024/01/02 02:34:04;;;;;;;26.60;17.40;;;;;;;-147.86;100.00;-17609.17;105590;1257;71333;-55
2024/01/02 02:36:32;;;;;;;23.90;16.70;;;;;;;-147.86;100.00;-17609.17;105609;1260;60451;-54
2024/01/02 02:39:00;;;;;;;24.40;16.90;;;;;;;-147.86;100.00;-17609.17;105653;1260;59737;-54
2024/01/02 02:41:28;;;;;;;28.20;18.00;;;;;;;-147.86;100.00;-17609.17;105629;1260;71969;-53
2024/01/02 02:43:55;;;;;;;24.10;16.70;;;;;;;-147.86;100.00;-17609.17;105583;1256;63226;-55
2024/01/02 02:46:23;;;;;;;24.00;16.50;;;;;;;-147.86;100.00;-17609.17;105626;1261;72585;-55
2024/01/02 02:48:51;;;;;;;23.50;16.00;;;;;;;-147.86;100.00;-17609.17;105615;1258;59881;-55
2024/01/02 02:51:19;;;;;;;23.30;16.60;;;;;;;-147.86;100.00;-17609.17;105842;1266;59621;-54
2024/01/02 02:53:46;;;;;;;25.70;17.90;;;;;;;-147.86;100.00;-17609.17;105837;1254;71819;-54
2024/01/02 02:56:15;;;;;;;32.30;17.80;;;;;;;-147.86;100.00;-17609.17;105886;1255;64476;-55
2024/01/02 02:58:43;;;;;;;26.80;17.10;;;;;;;-147.86;100.00;-17609.17;105906;1254;71420;-54
2024/01/02 03:01:21;;;;;;;26.10;17.70;;;;;;;-147.86;100.00;-17609.17;105810;1259;60908;-53
2024/01/02 03:03:48;;;;;;;29.90;17.60;;;;;;;-147.86;100.00;-17609.17;105912;1254;59935;-55
2024/01/02 03:06:16;;;;;;;22.60;16.70;;;;;;;-147.86;100.00;-17609.17;105828;1257;72069;-53
2024/01/02 03:08:44;;;;;;;28.00;18.40;;;;;;;-147.86;100.00;-17609.17;105878;1252;63099;-54
2024/01/02 03:11:12;;;;;;;27.70;18.90;;;;;;;-147.86;100.00;-17609.17;105832;1257;71356;-55
2024/01/02 03:13:39;;;;;;;28.90;18.70;;;;;;;-147.86;100.00;-17609.17;105845;1257;60384;-54
2024/01/02 03:16:09;;;;;;;30.40;18.30;;;;;;;-147.86;100.00;-17609.17;105859;1257;59646;-55
2024/01/02 03:18:36;;;;;;;26.30;16.90;;;;;;;-147.86;100.00;-17609.17;105863;1256;73021;-53
2024/01/02 03:21:05;;;;;;;27.40;17.70;;;;;;;-147.86;100.00;-17609.17;105891;1258;63203;-55
2024/01/02 03:23:34;;;;;;;29.20;19.00;;;;;;;-147.86;100.00;-17609.17;105901;1258;71617;-54
2024/01/02 03:26:02;;;;;;;26.90;17.80;;;;;;;-147.86;100.00;-17609.17;105806;1256;60434;-51
2024/01/02 03:28:31;;;;;;;26.50;17.50;;;;;;;-147.86;100.00;-17609.17;105898;1254;59637;-54
2024/01/02 03:30:58;;;;;;;27.20;17.70;;;;;;;-147.86;100.00;-17609.17;105907;1257;73105;-54
2024/01/02 03:33:27;;;;;;;25.10;16.50;;;;;;;-147.86;100.00;-17609.17;105961;1266;64502;-53
2024/01/02 03:35:55;;;;;;;27.00;18.10;;;;;;;-147.86;100.00;-17609.17;105858;1257;71353;-54
2024/01/02 03:38:23;;;;;;;27.40;17.30;;;;;;;-147.86;100.00;-17609.17;105817;1254;61632;-55
2024/01/02 03:40:52;;;;;;;25.20;16.10;;;;;;;-147.86;100.00;-17609.17;105854;1254;59957;-55
2024/01/02 03:43:20;;;;;;;24.60;16.30;;;;;;;-147.86;100.00;-17609.17;105886;1257;72997;-53
2024/01/02 03:45:47;;;;;;;25.70;16.00;;;;;;;-147.86;100.00;-17609.17;105834;1257;63118;-53
2024/01/02 03:48:16;;;;;;;24.70;15.60;;;;;;;-147.86;100.00;-17609.17;105892;1255;71406;-53
2024/01/02 03:50:45;;;;;;;26.50;15.60;;;;;;;-147.86;100.00;-17609.17;105829;1257;60397;-49
2024/01/02 03:53:12;;;;;;;19.80;13.20;;;;;;;-147.86;100.00;-17609.17;105851;1254;59593;-53
2024/01/02 03:55:40;;;;;;;25.20;13.60;;;;;;;-147.86;100.00;-17609.17;105805;1254;71800;-52
2024/01/02 03:58:08;;;;;;;17.70;12.40;;;;;;;-147.86;100.00;-17609.17;105549;1257;63763;-52
2024/01/02 04:00:36;;;;;;;19.20;11.80;;;;;;;-147.86;100.00;-17609.17;105610;1254;71379;-55
2024/01/02 04:03:04;;;;;;;18.70;11.60;;;;;;;-147.86;100.00;-17609.17;105813;1266;60530;-58
2024/01/02 04:05:33;;;;;;;17.60;11.70;;;;;;;-147.86;100.00;-17609.17;105894;1256;60428;-56
2024/01/02 04:08:01;;;;;;;21.20;12.50;;;;;;;-147.86;100.00;-17609.17;105880;1255;71556;-55
2024/01/02 04:10:28;;;;;;;21.60;11.20;;;;;;;-147.86;100.00;-17609.17;105845;1257;64340;-52
2024/01/02 04:12:56;;;;;;;18.50;11.90;;;;;;;-147.86;100.00;-17609.17;105879;1257;72614;-53
2024/01/02 04:15:24;;;;;;;17.30;11.30;;;;;;;-147.86;100.00;-17609.17;105833;1258;60450;-52
2024/01/02 04:17:53;;;;;;;17.40;11.00;;;;;;;-147.86;100.00;-17609.17;105907;1256;60300;-51
2024/01/02 04:20:21;;;;;;;16.10;10.00;;;;;;;-147.86;100.00;-17609.17;105852;1253;75024;-50
2024/01/02 04:22:54;;;;;;;14.90;9.70;;;;;;;-147.86;100.00;-17609.17;105882;1258;63200;-53
2024/01/02 04:25:22;;;;;;;8.20;6.40;;;;;;;-147.86;100.00;-17609.17;105845;1261;71357;-53
2024/01/02 04:27:55;;;;;;;9.50;5.70;;;;;;;-147.86;100.00;-17609.17;105881;1257;60539;-53
2024/01/02 04:30:23;;;;;;;9.80;6.70;;;;;;;-147.86;100.00;-17609.17;105771;1260;60376;-53
2024/01/02 04:32:51;;;;;;;8.00;5.30;;;;;;;-147.86;100.00;-17609.17;105877;1252;73616;-51
2024/01/02 04:35:20;;;;;;;8.10;5.10;;;;;;;-147.86;100.00;-17609.17;109624;1253;63044;-52
2024/01/02 04:37:48;;;;;;;6.30;4.60;;;;;;;-147.86;100.00;-17609.17;109608;1254;71063;-52
2024/01/02 04:40:16;;;;;;;6.60;4.50;;;;;;;-147.86;100.00;-17609.17;109572;1252;60040;-52
2024/01/02 04:42:43;;;;;;;9.10;4.50;;;;;;;-147.86;100.00;-17609.17;109598;1253;60189;-54
2024/01/02 04:45:11;;;;;;;4.40;3.60;;;;;;;-147.86;100.00;-17609.17;109604;1254;73854;-51
2024/01/02 04:47:39;;;;;;;4.40;3.50;;;;;;;-147.86;100.00;-17609.17;109595;1254;64499;-49
2024/01/02 04:53:13;;;;;;;3.50;3.10;;;;;;;-147.86;100.00;-17609.17;102693;1290;599700;-53
2024/01/02 04:55:41;;;;;;;3.80;3.10;;;;;;;-147.86;100.00;-17609.17;104833;1270;59225;-53
2024/01/02 04:58:09;;;;;;;3.30;2.90;;;;;;;-147.86;100.00;-17609.17;104958;1266;59996;-53
2024/01/02 05:00:37;;;;;;;3.50;3.10;;;;;;;-147.86;100.00;-17609.17;104855;1270;72429;-51
2024/01/02 05:03:05;;;;;;;3.20;2.90;;;;;;;-147.86;100.00;-17609.17;105572;1262;64374;-53
2024/01/02 05:05:33;;;;;;;3.40;3.10;;;;;;;-147.86;100.00;-17609.17;105469;1262;72834;-54
2024/01/02 05:08:01;;;;;;;4.70;3.50;;;;;;;-147.86;100.00;-17609.17;105481;1257;217858;-52
2024/01/02 05:10:28;;;;;;;9.30;2.90;;;;;;;-147.86;100.00;-17609.17;105672;1259;59269;-53
2024/01/02 05:12:56;;;;;;;3.00;2.70;;;;;;;-147.86;100.00;-17609.17;105659;1257;70833;-53
2024/01/02 05:15:24;;;;;;;2.80;2.60;;;;;;;-147.86;100.00;-17609.17;105670;1257;63125;-52
2024/01/02 05:17:53;;;;;;;5.80;2.60;;;;;;;-147.86;100.00;-17609.17;105657;1256;71740;-53
2024/01/02 05:20:22;;;;;;;3.00;2.70;;;;;;;-147.86;100.00;-17609.17;105638;1256;59711;-50
2024/01/02 05:22:50;;;;;;;4.20;3.30;;;;;;;-147.86;100.00;-17609.17;105679;1259;59705;-50
2024/01/02 05:25:33;;;;;;;3.20;2.80;;;;;;;-147.86;100.00;-17609.17;105625;1255;71773;-53
2024/01/02 05:28:01;;;;;;;4.60;2.90;;;;;;;-147.86;100.00;-17609.17;105669;1259;63347;-52
2024/01/02 05:30:28;;;;;;;3.50;2.70;;;;;;;-147.86;100.00;-17609.17;105638;1259;70873;-55
2024/01/02 05:32:57;;;;;;;2.50;2.30;;;;;;;-147.86;100.00;-17609.17;105637;1257;59669;-56
2024/01/02 05:35:25;;;;;;;3.70;2.00;;;;;;;-147.86;100.00;-17609.17;105614;1259;59645;-54
2024/01/02 05:37:53;;;;;;;2.90;2.40;;;;;;;-147.86;100.00;-17609.17;105561;1255;73012;-54
2024/01/02 05:40:20;;;;;;;2.40;1.70;;;;;;;-147.86;100.00;-17609.17;105559;1259;64483;-59
2024/01/02 05:42:48;;;;;;;2.50;2.10;;;;;;;-147.86;100.00;-17609.17;105424;1257;71433;-54
2024/01/02 05:45:16;;;;;;;2.00;1.90;;;;;;;-147.86;100.00;-17609.17;105423;1256;59763;-54
2024/01/02 05:47:44;;;;;;;2.90;1.90;;;;;;;-147.86;100.00;-17609.17;105507;1255;59972;-49
2024/01/02 05:50:13;;;;;;;2.30;2.10;;;;;;;-147.86;100.00;-17609.17;105559;1256;71530;-55
2024/01/02 05:52:44;;;;;;;2.20;2.00;;;;;;;-147.86;100.00;-17609.17;105591;1256;63948;-56
2024/01/02 05:55:12;;;;;;;2.50;2.30;;;;;;;-147.86;100.00;-17609.17;105582;1260;71424;-53
2024/01/02 05:57:39;;;;;;;3.40;2.70;;;;;;;-147.86;100.00;-17609.17;105590;1259;60070;-58
2024/01/02 06:00:08;;;;;;;2.10;1.80;;;;;;;-147.86;100.00;-17609.17;105580;1257;60369;-55
2024/01/02 06:02:36;;;;;;;2.90;2.60;;;;;;;-147.86;100.00;-17609.17;105599;1261;70860;-59
2024/01/02 06:05:05;;;;;;;2.60;2.30;;;;;;;-147.86;100.00;-17609.17;105531;1262;64399;-57
2024/01/02 06:07:33;;;;;;;3.10;2.80;;;;;;;-147.86;100.00;-17609.17;105580;1262;72650;-52
2024/01/02 06:10:01;;;;;;;4.70;2.80;;;;;;;-147.86;100.00;-17609.17;105607;1256;59721;-52
2024/01/02 06:12:28;;;;;;;6.50;3.30;;;;;;;-147.86;100.00;-17609.17;105527;1261;59624;-53
2024/01/02 06:14:57;;;;;;;5.60;3.60;;;;;;;-147.86;100.00;-17609.17;105537;1261;71178;-52
2024/01/02 06:17:25;;;;;;;3.70;3.30;;;;;;;-147.86;100.00;-17609.17;105594;1256;64982;-53
2024/01/02 06:19:52;;;;;;;4.10;3.60;;;;;;;-147.86;100.00;-17609.17;105549;1259;71412;-51
2024/01/02 06:22:20;;;;;;;4.30;3.70;;;;;;;-147.86;100.00;-17609.17;105531;1259;59760;-55
2024/01/02 06:24:48;;;;;;;7.50;4.40;;;;;;;-147.86;100.00;-17609.17;105501;1256;59623;-52
2024/01/02 06:27:16;;;;;;;4.10;3.70;;;;;;;-147.86;100.00;-17609.17;105537;1262;73819;-53
2024/01/02 06:29:43;;;;;;;4.20;3.40;;;;;;;-147.86;100.00;-17609.17;105559;1256;63101;-51
2024/01/02 06:32:15;;;;;;;4.70;3.40;;;;;;;-147.86;100.00;-17609.17;105355;1262;72597;-54
2024/01/02 06:34:43;;;;;;;3.70;3.40;;;;;;;-147.86;100.00;-17609.17;105561;1262;59678;-53
2024/01/02 06:37:11;;;;;;;5.50;3.70;;;;;;;-147.86;100.00;-17609.17;105555;1262;59684;-51
2024/01/02 06:39:38;;;;;;;5.50;4.00;;;;;;;-147.86;100.00;-17609.17;105486;1261;70887;-53
2024/01/02 06:42:06;;;;;;;3.80;3.40;;;;;;;-147.86;100.00;-17609.17;105505;1256;64207;-49
2024/01/02 06:44:33;;;;;;;3.30;3.00;;;;;;;-147.86;100.00;-17609.17;105559;1261;71960;-52
2024/01/02 06:47:01;;;;;;;3.80;3.20;;;;;;;-147.86;100.00;-17609.17;105613;1261;59740;-53
2024/01/02 06:49:29;;;;;;;5.00;3.40;;;;;;;-147.86;100.00;-17609.17;105538;1261;59529;-50
2024/01/02 06:51:57;;;;;;;9.30;3.80;;;;;;;-147.86;100.00;-17609.17;105561;1257;71783;-53
2024/01/02 06:54:24;;;;;;;5.60;4.00;;;;;;;-147.86;100.00;-17609.17;105527;1257;64601;-52
2024/01/02 06:56:52;;;;;;;3.50;3.10;;;;;;;-147.86;100.00;-17609.17;105539;1261;72690;-54
2024/01/02 06:59:19;;;;;;;3.70;3.30;;;;;;;-147.86;100.00;-17609.17;105524;1258;60850;-51
2024/01/02 07:01:47;;;;;;;5.00;3.10;;;;;;;-147.86;100.00;-17609.17;105588;1258;59986;-54
2024/01/02 07:04:15;;;;;;;3.70;3.00;;;;;;;-147.86;100.00;-17609.17;105545;1260;71859;-53
2024/01/02 07:06:43;;;;;;;3.20;2.90;;;;;;;-147.86;100.00;-17609.17;105578;1259;64338;-51
2024/01/02 07:09:10;;;;;;;5.10;3.50;;;;;;;-147.86;100.00;-17609.17;105520;1259;71289;-54
2024/01/02 07:11:38;;;;;;;4.50;3.40;;;;;;;-147.86;100.00;-17609.17;105527;1260;59734;-51
2024/01/02 07:14:06;;;;;;;3.20;2.90;;;;;;;-147.86;100.00;-17609.17;105578;1260;59556;-54
2024/01/02 07:16:34;;;;;;;3.70;3.40;;;;;;;-147.86;100.00;-17609.17;105536;1257;72970;-53
2024/01/02 07:19:01;;;;;;;6.00;3.30;;;;;;;-147.86;100.00;-17609.17;105527;1256;63216;-53
2024/01/02 07:21:29;;;;;;;5.20;4.00;;;;;;;-147.86;100.00;-17609.17;105547;1259;71366;-55
2024/01/02 07:23:57;;;;;;;3.80;3.20;;;;;;;-147.86;100.00;-17609.17;105543;1256;60056;-52
2024/01/02 07:26:24;;;;;;;4.10;3.50;;;;;;;-147.86;100.00;-17609.17;105511;1256;59533;-53
2024/01/02 07:28:52;;;;;;;3.90;3.10;;;;;;;-147.86;100.00;-17609.17;105535;1262;73005;-52
2024/01/02 07:31:19;;;;;;;5.50;3.70;;;;;;;-147.86;100.00;-17609.17;105566;1262;63248;-51
2024/01/02 07:33:48;;;;;;;5.90;4.00;;;;;;;-147.86;100.00;-17609.17;105509;1260;71804;-51
2024/01/02 07:36:20;;;;;;;5.10;3.30;;;;;;;-147.86;100.00;-17609.17;105537;1256;59753;-50
2024/01/02 07:38:49;;;;;;;10.30;3.40;;;;;;;-147.86;100.00;-17609.17;105534;1262;60035;-54
2024/01/02 07:41:17;;;;;;;4.50;3.50;;;;;;;-147.86;100.00;-17609.17;105522;1256;71790;-52
2024/01/02 07:43:45;;;;;;;3.70;3.30;;;;;;;-147.86;100.00;-17609.17;105565;1257;62585;-53
2024/01/02 07:46:13;;;;;;;3.50;3.20;;;;;;;-147.86;100.00;-17609.17;105510;1256;71729;-53
2024/01/02 07:48:40;;;;;;;6.30;3.30;;;;;;;-147.86;100.00;-17609.17;105536;1257;60033;-51
2024/01/02 07:51:08;;;;;;;3.50;3.10;;;;;;;-147.86;100.00;-17609.17;105610;1262;59581;-52
2024/01/02 07:53:36;;;;;;;4.00;3.40;;;;;;;-147.86;100.00;-17609.17;105534;1256;71900;-52
2024/01/02 07:56:05;;;;;;;5.70;3.00;;;;;;;-147.86;100.00;-17609.17;105505;1260;63157;-53
2024/01/02 07:58:32;;;;;;;8.10;3.80;;;;;;;-147.86;100.00;-17609.17;105633;1260;70414;-52
2024/01/02 08:01:01;;;;;;;3.70;3.30;;;;;;;-147.86;100.00;-17609.17;105565;1257;60128;-52
2024/01/02 08:03:29;;;;;;;4.20;2.70;;;;;;;-147.86;100.00;-17609.17;105587;1256;60059;-50
2024/01/02 08:05:57;;;;;;;5.20;3.20;;;;;;;-147.86;100.00;-17609.17;105543;1256;71893;-54
2024/01/02 08:08:29;;;;;;;4.50;2.70;;;;;;;-147.86;100.00;-17609.17;105413;1265;63869;-53
2024/01/02 08:10:57;;;;;;;4.50;2.80;;;;;;;-147.86;100.00;-17609.17;105516;1260;71405;-53
2024/01/02 08:13:25;;;;;;;3.40;2.80;;;;;;;-147.86;100.00;-17609.17;105547;1258;59692;-49
2024/01/02 08:15:53;;;;;;;3.80;2.60;;;;;;;-147.86;100.00;-17609.17;105557;1262;60019;-51
2024/01/02 08:18:20;;;;;;;4.60;2.80;;;;;;;-147.86;100.00;-17609.17;105566;1256;71832;-52
2024/01/02 08:20:48;;;;;;;3.20;2.90;;;;;;;-147.86;100.00;-17609.17;105512;1256;63316;-51
2024/01/02 08:23:16;;;;;;;5.40;3.00;;;;;;;-147.86;100.00;-17609.17;105575;1260;71630;-55
2024/01/02 08:25:44;;;;;;;4.70;2.70;;;;;;;-147.86;100.00;-17609.17;105560;1257;59709;-53
2024/01/02 08:28:12;;;;;;;3.80;2.60;;;;;;;-147.86;100.00;-17609.17;105511;1256;59961;-53
2024/01/02 08:30:40;;;;;;;3.90;2.20;;;;;;;-147.86;100.00;-17609.17;105541;1256;71819;-54
2024/01/02 08:33:08;;;;;;;3.50;2.50;;;;;;;-147.86;100.00;-17609.17;105588;1262;63170;-53
2024/01/02 08:35:37;;;;;;;9.10;2.90;;;;;;;-147.86;100.00;-17609.17;105584;1262;71406;-52
2024/01/02 08:38:05;;;;;;;3.20;2.20;;;;;;;-147.86;100.00;-17609.17;105588;1258;59664;-51
2024/01/02 08:40:33;;;;;;;4.90;2.00;;;;;;;-147.86;100.00;-17609.17;105611;1262;59638;-53
2024/01/02 08:43:01;;;;;;;2.10;1.70;;;;;;;-147.86;100.00;-17609.17;105530;1257;72161;-53
2024/01/02 08:45:30;;;;;;;3.40;2.60;;;;;;;-147.86;100.00;-17609.17;105597;1257;64525;-56
2024/01/02 08:47:58;;;;;;;4.30;2.20;;;;;;;-147.86;100.00;-17609.17;105552;1262;72600;-52
2024/01/02 08:50:29;;;;;;;2.90;2.60;;;;;;;-147.86;100.00;-17609.17;105603;1260;59688;-51
2024/01/02 08:52:58;;;;;;;2.40;2.20;;;;;;;-147.86;100.00;-17609.17;105564;1260;59624;-53
2024/01/02 08:55:27;;;;;;;2.40;2.20;;;;;;;-147.86;100.00;-17609.17;105552;1258;71865;-52
2024/01/02 08:57:54;;;;;;;4.80;2.70;;;;;;;-147.86;100.00;-17609.17;105567;1260;64829;-51
2024/01/02 09:00:22;;;;;;;3.80;2.60;;;;;;;-147.86;100.00;-17609.17;105531;1257;71421;-53
2024/01/02 09:02:49;;;;;;;2.30;2.00;;;;;;;-147.86;100.00;-17609.17;105531;1262;60490;-53
2024/01/02 09:05:17;;;;;;;6.50;2.20;;;;;;;-147.86;100.00;-17609.17;105582;1261;60433;-53
2024/01/02 09:07:46;;;;;;;2.50;2.20;;;;;;;-147.86;100.00;-17609.17;105567;1258;72639;-51
2024/01/02 09:10:14;;;;;;;3.90;2.30;;;;;;;-147.86;100.00;-17609.17;105532;1256;63314;-55
2024/01/02 09:12:41;;;;;;;2.50;2.00;;;;;;;-147.86;100.00;-17609.17;105587;1262;71409;-50
2024/01/02 09:15:10;;;;;;;3.30;1.90;;;;;;;-147.86;100.00;-17609.17;105515;1262;60873;-49
2024/01/02 09:17:38;;;;;;;2.60;2.10;;;;;;;-147.86;100.00;-17609.17;105546;1262;60351;-52
2024/01/02 09:20:07;;;;;;;5.20;2.10;;;;;;;-147.86;100.00;-17609.17;105722;1257;72083;-55
2024/01/02 09:22:35;;;;;;;5.50;2.30;;;;;;;-147.86;100.00;-17609.17;105749;1259;64600;-53
2024/01/02 09:25:02;;;;;;;6.00;2.10;;;;;;;-147.86;100.00;-17609.17;105704;1253;70628;-52
2024/01/02 09:27:30;;;;;;;2.40;1.90;;;;;;;-147.86;100.00;-17609.17;105732;1253;60530;-54
2024/01/02 09:30:04;;;;;;;3.40;2.00;;;;;;;-147.86;100.00;-17609.17;105629;1254;60429;-51
2024/01/02 09:32:32;;;;;;;3.60;2.40;;;;;;;-147.86;100.00;-17609.17;105771;1253;73825;-54
2024/01/02 09:35:00;;;;;;;3.10;2.30;;;;;;;-147.86;100.00;-17609.17;105623;1259;64434;-53
2024/01/02 09:37:27;;;;;;;5.30;2.10;;;;;;;-147.86;100.00;-17609.17;105540;1258;71396;-51
2024/01/02 09:39:55;;;;;;;2.30;2.00;;;;;;;-147.86;100.00;-17609.17;105550;1259;60525;-52
2024/01/02 09:42:41;;;;;;;3.50;2.40;;;;;;;-147.86;100.00;-17609.17;105740;1258;60333;-57
2024/01/02 09:45:19;;;;;;;;;;;;;;;-147.86;100.00;-17609.17;105791;1259;72634;-53
2024/01/02 09:48:07;;;;;;;3.70;2.10;;;;;;;-147.86;100.00;-17609.17;105791;1259;63235;-56
2024/01/02 09:50:46;;;;;;;7.00;2.50;;;;;;;-147.86;100.00;-17609.17;105765;1260;72634;-54
2024/01/02 09:53:29;;;;;;;2.40;2.20;;;;;;;-147.86;100.00;-17609.17;105743;1259;60524;-53
2024/01/02 09:56:26;;;;;;;6.40;2.70;;;;;;;-147.86;100.00;-17609.17;105801;1257;60381;-51
2024/01/02 09:59:08;;;;;;;5.40;2.60;;;;;;;-147.86;100.00;-17609.17;105802;1253;72604;-54
2024/01/02 10:01:44;;;;;;;6.70;2.50;;;;;;;-147.86;100.00;-17609.17;105794;1257;64578;-50
2024/01/02 10:04:18;;;;;;;3.90;2.60;;;;;;;-147.86;100.00;-17609.17;105756;1254;71909;-52
2024/01/02 10:06:52;;;;;;;3.60;2.70;;;;;;;-147.86;100.00;-17609.17;105755;1256;61071;-50
2024/01/02 10:09:23;;;;;;;2.70;2.20;;;;;;;-147.86;100.00;-17609.17;105780;1259;60425;-49
2024/01/02 10:12:30;;;;;;;3.50;2.10;;;;;;;-147.86;100.00;-17609.17;105714;1253;72889;-51
2024/01/02 10:15:04;;;;;;;3.40;1.90;;;;;;;-147.86;100.00;-17609.17;105793;1259;62146;-52
2024/01/02 10:17:58;;;;;;;2.20;2.00;;;;;;;-147.86;100.00;-17609.17;105758;1257;72642;-50
2024/01/02 10:20:54;;;;;;;3.50;2.50;;;;;;;-147.86;100.00;-17609.17;105747;1258;60550;-49
2024/01/02 10:23:44;;;;;;;3.10;2.20;;;;;;;-147.86;100.00;-17609.17;105742;1260;60407;-50
2024/01/02 10:26:13;;;;;;;2.90;1.90;;;;;;;-147.86;100.00;-17609.17;105744;1254;73663;-54
2024/01/02 10:28:42;;;;;;;2.50;1.70;;;;;;;-147.86;100.00;-17609.17;105768;1253;64614;-53
2024/01/02 10:31:25;;;;;;;2.90;2.00;;;;;;;-147.86;100.00;-17609.17;105768;1258;71413;-54
2024/01/02 10:34:10;;;;;;;2.70;1.90;;;;;;;-147.86;100.00;-17609.17;105794;1256;61391;-50
2024/01/02 10:36:43;;;;;;;2.00;1.80;;;;;;;-147.86;100.00;-17609.17;105775;1258;60449;-54
2024/01/02 10:39:26;;;;;;;2.50;2.00;;;;;;;-147.86;100.00;-17609.17;105782;1254;72578;-50
2024/01/02 10:42:24;;;;;;;4.30;1.80;;;;;;;-147.86;100.00;-17609.17;105718;1259;63253;-54
2024/01/02 10:44:58;;;;;;;3.50;2.40;;;;;;;-147.86;100.00;-17609.17;105797;1253;73567;-54
2024/01/02 10:47:32;;;;;;;2.70;2.10;;;;;;;-147.86;100.00;-17609.17;105750;1255;60412;-54
2024/01/02 10:52:34;;;;;;;1.60;1.50;;;;;;;-147.86;100.00;-17609.17;102778;1294;600226;-52
2024/01/02 10:55:35;;;;;;;3.40;2.50;;;;;;;-147.86;100.00;-17609.17;105141;1265;60740;-52
2024/01/02 10:58:10;;;;;;;3.00;2.30;;;;;;;-147.86;100.00;-17609.17;105087;1269;59481;-51
2024/01/02 11:01:06;;;;;;;1.90;1.80;;;;;;;-147.86;100.00;-17609.17;105041;1264;71075;-50
2024/01/02 11:03:39;;;;;;;2.20;1.80;;;;;;;-147.86;100.00;-17609.17;105150;1270;63224;-56